Time;durP1;ratioP1;P1;durP2;ratioP2;P2;SDS_P1;SDS_P2;PMS_P1;PMS_P2;Temp;Humidity;BMP_temperature;BMP_pressure;BME280_temperature;BME280_humidity;BME280_pressure;Samples;Min_cycle;Max_cycle;Signal;HPM_P1;HPM_P2
2022/06/24 04:58:16;;;;;;;11.77;4.00;;;22.30;70.60;;;;;;4699558;30;20136;-81
2022/06/24 05:00:42;;;;;;;8.48;3.17;;;22.20;70.80;;;;;;4704599;30;20054;-84
2022/06/24 05:03:08;;;;;;;8.57;4.40;;;22.10;72.30;;;;;;4689285;30;20057;-84
2022/06/24 05:05:35;;;;;;;6.72;3.40;;;22.10;73.60;;;;;;4689109;30;20367;-85
2022/06/24 05:08:01;;;;;;;6.35;3.08;;;22.00;74.40;;;;;;4689226;30;20060;-86
2022/06/24 05:10:27;;;;;;;5.72;3.13;;;21.90;74.90;;;;;;4689573;30;20045;-88
2022/06/24 05:12:52;;;;;;;7.57;3.05;;;21.80;75.30;;;;;;4689281;30;20045;-86
2022/06/24 05:15:18;;;;;;;5.45;2.88;;;21.80;75.70;;;;;;4686056;30;20053;-86
2022/06/24 05:17:46;;;;;;;6.75;3.22;;;21.70;76.10;;;;;;4657903;30;20054;-87
2022/06/24 05:20:12;;;;;;;6.32;2.97;;;21.70;76.40;;;;;;4673571;30;20082;-81
2022/06/24 05:22:38;;;;;;;10.63;3.17;;;21.60;76.80;;;;;;4704048;30;20159;-81
2022/06/24 05:25:07;;;;;;;8.70;3.58;;;21.60;77.00;;;;;;4704371;30;20064;-81
2022/06/24 05:27:38;;;;;;;4.82;2.80;;;21.60;77.60;;;;;;4688777;30;20061;-86
2022/06/24 05:30:05;;;;;;;8.73;3.67;;;21.50;78.00;;;;;;4688904;30;20060;-80
2022/06/24 05:32:32;;;;;;;7.72;3.28;;;21.50;78.10;;;;;;4703828;30;20052;-81
2022/06/24 05:34:57;;;;;;;8.82;3.25;;;21.50;78.20;;;;;;4703867;30;20061;-77
2022/06/24 05:37:23;;;;;;;10.32;3.55;;;21.60;78.30;;;;;;4704239;30;20056;-78
2022/06/24 05:39:49;;;;;;;12.63;3.95;;;21.60;78.30;;;;;;4703670;30;20061;-77
2022/06/24 05:42:14;;;;;;;10.45;3.60;;;21.60;78.30;;;;;;4703140;30;20136;-77
2022/06/24 05:44:40;;;;;;;9.60;3.30;;;21.70;78.30;;;;;;4703686;30;20103;-77
2022/06/24 05:47:06;;;;;;;7.90;3.25;;;21.70;78.20;;;;;;4703867;30;20140;-77
2022/06/24 05:49:32;;;;;;;8.50;3.58;;;21.80;78.20;;;;;;4704198;30;20053;-74
2022/06/24 05:51:58;;;;;;;8.93;3.20;;;21.90;78.10;;;;;;4704022;30;20132;-79
2022/06/24 05:57:07;;;;;;;13.52;3.85;;;21.90;78.00;;;;;;4703226;30;20058;-73
2022/06/24 05:59:37;;;;;;;19.33;3.42;;;21.90;77.80;;;;;;4704026;30;20060;-77
2022/06/24 06:02:07;;;;;;;11.32;3.17;;;22.00;77.60;;;;;;4703094;30;20062;-76
2022/06/24 06:04:34;;;;;;;10.65;3.22;;;22.00;77.50;;;;;;4703460;30;20123;-74
2022/06/24 06:07:00;;;;;;;14.05;2.63;;;22.00;77.50;;;;;;4703788;30;20057;-74
2022/06/24 06:09:26;;;;;;;8.85;3.10;;;22.00;77.50;;;;;;4703427;30;20057;-74
2022/06/24 06:11:52;;;;;;;9.05;3.10;;;21.90;77.60;;;;;;4703090;30;20053;-75
2022/06/24 06:14:18;;;;;;;20.10;3.25;;;21.90;77.40;;;;;;4703013;30;20068;-76
2022/06/24 06:16:43;;;;;;;12.90;3.25;;;21.90;77.30;;;;;;4703591;30;20426;-77
2022/06/24 06:19:09;;;;;;;13.60;3.00;;;21.90;77.30;;;;;;4703065;30;20470;-76
2022/06/24 06:21:35;;;;;;;10.15;2.97;;;21.90;77.20;;;;;;4703043;30;20123;-76
2022/06/24 06:24:01;;;;;;;9.65;3.45;;;21.90;77.20;;;;;;4703714;30;20425;-77
2022/06/24 06:26:28;;;;;;;8.45;3.88;;;21.90;77.10;;;;;;4703117;30;20134;-76
2022/06/24 06:28:54;;;;;;;10.88;3.70;;;21.90;77.10;;;;;;4688233;30;20103;-76
2022/06/24 06:31:20;;;;;;;9.93;3.85;;;21.90;77.10;;;;;;4703349;30;20132;-76
2022/06/24 06:33:46;;;;;;;10.70;4.55;;;21.80;77.30;;;;;;4703116;30;20068;-77
2022/06/24 06:36:12;;;;;;;8.55;4.43;;;21.70;77.60;;;;;;4703109;30;20115;-76
2022/06/24 06:38:39;;;;;;;10.98;3.72;;;21.70;77.90;;;;;;4703382;30;20142;-77
2022/06/24 06:41:05;;;;;;;10.90;3.90;;;21.70;78.10;;;;;;4703343;30;20053;-77
2022/06/24 06:43:31;;;;;;;9.30;4.15;;;21.70;78.10;;;;;;4702257;30;20055;-77
2022/06/24 06:45:57;;;;;;;13.35;3.67;;;21.70;78.10;;;;;;4702443;30;20458;-80
2022/06/24 06:48:23;;;;;;;11.00;4.03;;;21.70;78.30;;;;;;4702092;30;20064;-76
2022/06/24 06:50:56;;;;;;;8.43;3.83;;;21.70;78.30;;;;;;4702739;30;20064;-77
2022/06/24 06:53:23;;;;;;;7.93;3.80;;;21.70;78.10;;;;;;4702491;30;20136;-77
2022/06/24 06:55:50;;;;;;;8.43;3.85;;;21.70;78.00;;;;;;4702917;30;20049;-77
2022/06/24 06:58:16;;;;;;;6.50;3.60;;;21.70;78.00;;;;;;4687133;30;20075;-76
2022/06/24 07:00:54;;;;;;;14.30;4.65;;;21.70;78.00;;;;;;4702928;30;20052;-85
2022/06/24 07:03:23;;;;;;;8.07;4.82;;;21.70;78.00;;;;;;4686212;30;20049;-81
2022/06/24 07:05:50;;;;;;;5.97;4.43;;;21.70;78.00;;;;;;4686715;30;20045;-76
2022/06/24 07:08:16;;;;;;;6.32;4.43;;;21.70;78.20;;;;;;4702401;30;20061;-78
2022/06/24 07:10:45;;;;;;;7.45;4.50;;;21.70;78.30;;;;;;4702469;30;20524;-81
2022/06/24 07:13:11;;;;;;;5.78;4.70;;;21.70;78.50;;;;;;4683972;30;20078;-79
2022/06/24 07:15:37;;;;;;;8.95;4.80;;;21.60;78.50;;;;;;4685384;30;20140;-75
2022/06/24 07:18:03;;;;;;;7.43;4.32;;;21.60;78.50;;;;;;4685307;30;20502;-75
2022/06/24 07:20:29;;;;;;;6.72;4.32;;;21.60;78.50;;;;;;4684890;30;20479;-76
2022/06/24 07:22:55;;;;;;;5.65;4.25;;;21.70;78.70;;;;;;4696934;30;20142;-76
2022/06/24 07:25:21;;;;;;;6.95;4.25;;;21.70;78.60;;;;;;4702337;30;20148;-75
2022/06/24 07:27:46;;;;;;;5.88;4.20;;;21.70;78.50;;;;;;4702490;30;20136;-75
2022/06/24 07:30:12;;;;;;;9.35;4.30;;;21.70;78.50;;;;;;4702431;30;20049;-74
2022/06/24 07:32:38;;;;;;;6.90;4.13;;;21.70;78.50;;;;;;4702026;30;20049;-74
2022/06/24 07:35:05;;;;;;;5.25;4.05;;;21.70;78.40;;;;;;4702160;30;20063;-74
2022/06/24 07:37:30;;;;;;;8.98;4.20;;;21.70;78.40;;;;;;4702676;30;20054;-75
2022/06/24 07:39:56;;;;;;;5.35;3.90;;;21.70;78.30;;;;;;4702071;30;20143;-74
2022/06/24 07:42:22;;;;;;;6.40;4.05;;;21.70;78.20;;;;;;4701795;30;20060;-75
2022/06/24 07:44:48;;;;;;;5.25;4.30;;;21.80;78.10;;;;;;4702234;30;20335;-74
2022/06/24 07:47:14;;;;;;;5.30;3.92;;;21.80;78.00;;;;;;4701648;30;20059;-74
2022/06/24 07:49:39;;;;;;;5.07;3.78;;;21.80;77.90;;;;;;4701779;30;20057;-74
2022/06/24 07:52:08;;;;;;;4.32;3.30;;;21.80;77.70;;;;;;4701822;30;20053;-74
2022/06/24 07:54:34;;;;;;;5.47;3.80;;;21.80;77.60;;;;;;4702086;30;20053;-74
2022/06/24 07:57:00;;;;;;;5.28;3.88;;;21.80;77.60;;;;;;4700911;30;20529;-74
2022/06/24 07:59:46;;;;;;;5.68;3.47;;;21.80;77.50;;;;;;4701352;30;20521;-74
2022/06/24 08:02:12;;;;;;;5.15;3.55;;;21.80;77.50;;;;;;4701010;30;20057;-76
2022/06/24 08:04:38;;;;;;;6.55;3.88;;;21.80;77.60;;;;;;4686463;30;20208;-73
2022/06/24 08:07:04;;;;;;;6.80;3.72;;;21.80;77.60;;;;;;4701787;30;20188;-73
2022/06/24 08:09:32;;;;;;;7.82;3.63;;;21.80;77.60;;;;;;4701882;30;20529;-73
2022/06/24 08:11:57;;;;;;;8.32;3.78;;;21.80;77.60;;;;;;4701435;30;20522;-74
2022/06/24 08:14:23;;;;;;;7.68;3.45;;;21.80;77.60;;;;;;4701951;30;20054;-74
2022/06/24 08:16:49;;;;;;;7.43;3.80;;;21.90;77.60;;;;;;4702314;30;20053;-74
2022/06/24 08:19:15;;;;;;;7.70;3.70;;;21.90;77.50;;;;;;4705349;30;20057;-74
2022/06/24 08:21:42;;;;;;;5.97;3.50;;;21.90;77.50;;;;;;4705322;30;20077;-74
2022/06/24 08:24:09;;;;;;;5.28;3.30;;;21.90;77.50;;;;;;4705197;30;20093;-73
2022/06/24 08:26:34;;;;;;;6.03;3.30;;;22.00;77.40;;;;;;4705363;30;20132;-78
2022/06/24 08:29:01;;;;;;;4.57;3.28;;;21.90;77.30;;;;;;4705167;30;20491;-77
2022/06/24 08:31:26;;;;;;;8.40;4.43;;;22.00;77.50;;;;;;4704671;30;20370;-78
2022/06/24 08:33:52;;;;;;;7.70;5.68;;;22.00;77.70;;;;;;4705429;30;20045;-77
2022/06/24 08:36:18;;;;;;;8.80;5.40;;;21.90;78.30;;;;;;4705057;30;20054;-76
2022/06/24 08:38:44;;;;;;;10.07;5.80;;;21.90;78.80;;;;;;4705294;30;20057;-75
2022/06/24 08:41:10;;;;;;;7.60;5.75;;;21.90;79.10;;;;;;4704999;30;20069;-77
2022/06/24 08:43:36;;;;;;;9.88;5.80;;;21.80;79.30;;;;;;4705746;30;20144;-76
2022/06/24 08:46:03;;;;;;;10.20;6.10;;;21.80;79.60;;;;;;4704814;30;20145;-78
2022/06/24 08:48:33;;;;;;;7.85;5.93;;;21.70;79.60;;;;;;4689071;30;20389;-80
2022/06/24 08:51:00;;;;;;;10.25;5.53;;;21.70;79.80;;;;;;4704475;30;20069;-78
2022/06/24 08:53:29;;;;;;;8.73;5.35;;;21.70;79.90;;;;;;4702698;30;20118;-79
2022/06/24 08:55:55;;;;;;;6.82;4.97;;;21.60;79.80;;;;;;4701395;30;20472;-78
2022/06/24 11:31:13;;;;;;;10.57;7.80;;;21.80;77.90;;;;;;4869546;24;20048;-75
2022/06/24 11:33:39;;;;;;;11.25;9.27;;;21.70;78.20;;;;;;4771064;30;20090;-76
2022/06/24 11:36:05;;;;;;;13.07;9.57;;;21.80;78.20;;;;;;4757013;30;20066;-75
2022/06/24 11:38:36;;;;;;;10.48;9.40;;;21.70;78.00;;;;;;4772442;30;20109;-75
2022/06/24 11:41:02;;;;;;;13.15;9.75;;;21.60;77.90;;;;;;4772168;30;20052;-76
2022/06/24 11:43:28;;;;;;;11.27;10.13;;;21.60;78.10;;;;;;4772372;30;20123;-76
2022/06/24 11:45:57;;;;;;;11.40;10.18;;;21.50;78.20;;;;;;4772325;30;20507;-76
2022/06/24 11:48:24;;;;;;;11.88;9.73;;;21.50;78.50;;;;;;4772768;30;20416;-75
2022/06/24 11:50:51;;;;;;;11.93;9.85;;;21.40;78.80;;;;;;4773218;30;20062;-80
2022/06/24 11:53:25;;;;;;;15.65;9.38;;;21.40;79.10;;;;;;4783453;30;20070;-81
2022/06/24 11:55:54;;;;;;;19.08;9.38;;;21.40;79.20;;;;;;4756928;30;20154;-78
2022/06/24 11:58:21;;;;;;;10.60;8.27;;;21.40;79.10;;;;;;4772194;30;20051;-79
2022/06/24 12:00:47;;;;;;;10.50;8.60;;;21.50;79.10;;;;;;4772864;30;20128;-78
2022/06/24 12:03:16;;;;;;;9.57;7.68;;;21.50;78.90;;;;;;4771229;30;20108;-77
2022/06/24 12:05:44;;;;;;;9.57;7.57;;;21.50;78.70;;;;;;4772012;30;20087;-78
2022/06/24 12:08:10;;;;;;;8.05;6.47;;;21.60;78.60;;;;;;4771927;30;20063;-78
2022/06/24 12:10:51;;;;;;;9.85;7.32;;;21.60;78.40;;;;;;4757194;30;20368;-77
2022/06/24 12:13:32;;;;;;;6.78;6.15;;;21.70;78.20;;;;;;4771428;30;20383;-79
2022/06/24 12:15:58;;;;;;;7.82;5.55;;;21.70;78.00;;;;;;4755855;30;20110;-77
2022/06/24 12:18:26;;;;;;;8.18;5.75;;;21.70;77.70;;;;;;4771771;30;20083;-79
2022/06/24 12:21:25;;;;;;;7.03;5.47;;;21.70;77.50;;;;;;4771934;30;20406;-77
2022/06/24 12:23:51;;;;;;;7.38;5.70;;;21.80;77.40;;;;;;4754352;30;20426;-79
2022/06/24 12:26:23;;;;;;;8.07;5.35;;;21.80;77.30;;;;;;4754207;30;20133;-78
2022/06/24 12:28:59;;;;;;;9.00;5.90;;;21.80;77.10;;;;;;4739426;30;20060;-79
2022/06/24 12:31:24;;;;;;;6.60;5.38;;;21.90;77.00;;;;;;4755820;30;20079;-79
2022/06/24 12:33:54;;;;;;;7.90;5.32;;;21.90;76.90;;;;;;4771869;30;20048;-78
2022/06/24 12:36:22;;;;;;;9.25;5.15;;;21.90;76.80;;;;;;4781855;30;20142;-78
2022/06/24 12:38:48;;;;;;;7.03;4.93;;;21.90;76.80;;;;;;4773725;30;20120;-78
2022/06/24 12:41:16;;;;;;;7.90;5.10;;;21.90;76.70;;;;;;4788772;30;20055;-79
2022/06/24 12:44:03;;;;;;;6.35;4.72;;;22.00;76.60;;;;;;4771950;30;20435;-79
2022/06/24 12:46:32;;;;;;;5.78;4.68;;;22.00;76.50;;;;;;4772015;30;20075;-78
2022/06/24 12:51:44;;;;;;;6.30;4.72;;;21.90;76.40;;;;;;4771235;30;20051;-80
2022/06/24 12:54:11;;;;;;;5.15;4.65;;;22.00;76.30;;;;;;4771974;30;20137;-78
2022/06/24 12:56:36;;;;;;;5.75;4.57;;;22.00;76.20;;;;;;4771520;30;20052;-78
2022/06/24 12:59:03;;;;;;;6.03;4.90;;;22.00;76.20;;;;;;4771354;30;20055;-79
2022/06/24 13:01:31;;;;;;;5.88;4.70;;;22.00;76.10;;;;;;4755413;30;20138;-78
2022/06/24 13:03:58;;;;;;;4.07;3.67;;;22.00;76.00;;;;;;4773452;30;20386;-79
2022/06/24 13:06:23;;;;;;;5.85;4.45;;;22.00;76.00;;;;;;4775165;30;20048;-77
2022/06/24 13:08:49;;;;;;;7.22;4.90;;;22.00;75.90;;;;;;4759286;30;20070;-81
2022/06/24 13:11:15;;;;;;;14.68;12.45;;;22.00;75.80;;;;;;4759005;30;20117;-80
2022/06/24 13:13:41;;;;;;;13.27;11.88;;;22.00;76.00;;;;;;4781165;30;20103;-79
2022/06/24 13:16:06;;;;;;;11.70;9.60;;;22.00;76.30;;;;;;4774674;30;20048;-76
2022/06/24 13:18:32;;;;;;;11.68;9.73;;;22.00;76.30;;;;;;4774272;30;20047;-76
2022/06/24 13:20:58;;;;;;;13.52;10.68;;;22.00;75.80;;;;;;4774646;30;20055;-76
2022/06/24 13:23:24;;;;;;;12.30;11.00;;;22.00;76.10;;;;;;4758931;30;20071;-75
2022/06/24 13:25:49;;;;;;;12.50;11.20;;;21.90;76.70;;;;;;4775157;30;20043;-76
2022/06/24 13:28:15;;;;;;;15.82;10.40;;;21.90;76.70;;;;;;4774932;30;20056;-75
2022/06/24 13:30:41;;;;;;;13.80;11.73;;;21.90;77.00;;;;;;4744108;30;20067;-76
2022/06/24 13:33:06;;;;;;;15.30;12.00;;;21.90;77.00;;;;;;4773987;30;20062;-76
2022/06/24 13:35:32;;;;;;;14.07;10.57;;;21.80;76.90;;;;;;4774368;30;20062;-76
2022/06/24 13:37:58;;;;;;;11.55;8.75;;;21.80;77.00;;;;;;4759291;30;20062;-75
2022/06/24 13:40:23;;;;;;;9.60;8.15;;;21.80;77.10;;;;;;4774359;30;20139;-76
2022/06/24 13:42:49;;;;;;;11.13;8.27;;;21.90;77.10;;;;;;4773782;30;20047;-77
2022/06/24 13:45:16;;;;;;;12.13;8.52;;;21.90;77.10;;;;;;4774203;30;20167;-77
2022/06/24 13:47:41;;;;;;;8.82;7.57;;;21.90;77.10;;;;;;4774344;30;20131;-77
2022/06/24 13:50:08;;;;;;;10.40;6.97;;;22.00;77.10;;;;;;4774089;30;20102;-76
2022/06/24 13:52:34;;;;;;;10.30;6.95;;;21.90;77.00;;;;;;4774011;30;20070;-77
2022/06/24 13:55:00;;;;;;;7.45;6.72;;;22.00;77.10;;;;;;4758610;30;20134;-77
2022/06/24 13:57:26;;;;;;;7.25;6.28;;;22.00;77.00;;;;;;4774239;30;20064;-75
2022/06/24 13:59:52;;;;;;;9.23;8.05;;;22.00;77.00;;;;;;4774244;30;20131;-75
2022/06/24 14:02:20;;;;;;;14.05;9.25;;;22.00;76.70;;;;;;4778223;30;20075;-77
2022/06/24 14:04:46;;;;;;;12.50;8.93;;;22.00;76.70;;;;;;4792142;30;20051;-75
2022/06/24 14:07:12;;;;;;;11.77;8.07;;;22.10;76.30;;;;;;4791699;30;20058;-75
2022/06/24 14:09:38;;;;;;;11.52;8.10;;;22.10;75.90;;;;;;4775902;30;20097;-76
2022/06/24 14:12:06;;;;;;;13.35;8.68;;;22.10;75.10;;;;;;4782920;30;20059;-76
2022/06/24 14:14:31;;;;;;;9.77;8.05;;;22.20;74.60;;;;;;4772852;30;20059;-77
2022/06/24 14:16:57;;;;;;;10.60;7.55;;;22.20;74.50;;;;;;4779891;30;20051;-77
2022/06/24 14:19:23;;;;;;;11.77;6.95;;;22.10;74.70;;;;;;4791804;30;20135;-73
2022/06/24 14:21:48;;;;;;;9.52;7.30;;;22.10;75.10;;;;;;4791342;30;20051;-75
2022/06/24 14:24:32;;;;;;;11.35;6.40;;;22.20;75.50;;;;;;4780695;30;20066;-74
2022/06/24 14:26:59;;;;;;;;;;;22.20;75.90;;;;;;4774188;30;20056;-74
2022/06/24 14:29:24;;;;;;;10.57;5.25;;;22.20;75.90;;;;;;4773643;30;19992;-73
2022/06/24 14:31:50;;;;;;;13.25;7.38;;;22.20;76.30;;;;;;4773574;30;20125;-74
2022/06/24 14:34:16;;;;;;;14.80;10.45;;;22.20;76.20;;;;;;4773030;30;20159;-80
2022/06/24 14:36:41;;;;;;;12.32;9.40;;;22.30;75.40;;;;;;4757706;30;20087;-79
2022/06/24 14:41:52;;;;;;;20.38;11.80;;;22.30;74.40;;;;;;4773239;30;20043;-78
2022/06/24 14:44:17;;;;;;;19.88;11.93;;;22.30;74.30;;;;;;4772640;30;20126;-76
2022/06/24 14:46:43;;;;;;;16.80;11.98;;;22.30;75.20;;;;;;4757225;30;20138;-77
2022/06/24 14:49:09;;;;;;;15.27;11.88;;;22.30;74.30;;;;;;4773446;30;20063;-83
2022/06/24 14:51:34;;;;;;;13.93;10.38;;;22.40;73.10;;;;;;4740034;30;20365;-81
2022/06/24 14:54:00;;;;;;;13.15;10.63;;;22.40;73.30;;;;;;4772791;30;20156;-78
2022/06/24 14:56:26;;;;;;;13.07;10.27;;;22.40;73.30;;;;;;4772977;30;20495;-79
2022/06/24 14:58:52;;;;;;;12.60;10.95;;;22.50;73.60;;;;;;4757068;30;20190;-78
2022/06/24 15:01:18;;;;;;;14.40;12.02;;;22.40;73.30;;;;;;4757908;30;20063;-79
2022/06/24 15:03:43;;;;;;;14.38;10.05;;;22.50;74.10;;;;;;4757120;30;20043;-82
2022/06/24 15:06:09;;;;;;;12.73;9.88;;;22.50;74.80;;;;;;4772787;30;20121;-79
2022/06/24 15:08:35;;;;;;;13.05;9.65;;;22.50;73.80;;;;;;4772813;30;20167;-81
2022/06/24 15:11:01;;;;;;;13.35;9.20;;;22.60;72.10;;;;;;4757224;30;20380;-82
2022/06/24 15:13:27;;;;;;;10.38;8.85;;;22.60;71.00;;;;;;4742429;30;20052;-81
2022/06/24 15:15:53;;;;;;;13.55;10.05;;;22.60;70.10;;;;;;4756736;30;20529;-80
2022/06/24 15:18:19;;;;;;;12.95;9.85;;;22.50;69.90;;;;;;4772761;30;20036;-81
2022/06/24 15:20:45;;;;;;;15.35;9.65;;;22.50;70.10;;;;;;4771633;30;20447;-84
2022/06/24 15:23:11;;;;;;;11.13;8.45;;;22.50;70.40;;;;;;4756850;30;20044;-81
2022/06/24 15:25:37;;;;;;;8.57;6.93;;;22.50;70.50;;;;;;4756522;30;20043;-80
2022/06/24 15:28:04;;;;;;;9.18;6.40;;;22.50;70.40;;;;;;4771638;30;20047;-77
2022/06/24 15:30:29;;;;;;;8.18;4.57;;;22.50;70.80;;;;;;4772286;30;20047;-78
2022/06/24 15:32:55;;;;;;;10.60;5.03;;;22.50;70.60;;;;;;4756547;30;20113;-78
2022/06/24 15:35:21;;;;;;;9.85;5.47;;;22.50;71.00;;;;;;4756399;30;20051;-79
2022/06/24 15:37:47;;;;;;;7.93;4.82;;;22.60;71.30;;;;;;4756915;30;20081;-77
2022/06/24 15:40:13;;;;;;;8.93;5.25;;;22.60;71.60;;;;;;4756993;30;20044;-77
2022/06/24 15:42:38;;;;;;;10.05;5.50;;;22.60;71.50;;;;;;4773109;30;20091;-77
2022/06/24 15:45:05;;;;;;;7.32;5.28;;;22.60;71.20;;;;;;4771898;30;20414;-79
2022/06/24 15:47:31;;;;;;;9.93;6.22;;;22.60;71.20;;;;;;4772419;30;20048;-78
2022/06/24 15:49:56;;;;;;;8.35;6.72;;;22.60;71.10;;;;;;4772383;30;20066;-77
2022/06/24 15:52:22;;;;;;;7.68;6.00;;;22.60;70.90;;;;;;4772495;30;20468;-77
2022/06/24 15:54:48;;;;;;;8.23;6.72;;;22.50;70.90;;;;;;4772018;30;20058;-78
2022/06/24 15:57:14;;;;;;;9.32;6.28;;;22.50;71.10;;;;;;4781968;30;20145;-76
2022/06/24 15:59:40;;;;;;;11.55;6.75;;;22.50;71.50;;;;;;4790311;30;20062;-77
2022/06/24 16:02:05;;;;;;;17.05;7.38;;;22.50;72.10;;;;;;4780931;30;20372;-78
2022/06/24 16:04:31;;;;;;;13.10;7.53;;;22.60;72.50;;;;;;4756274;30;20062;-78
2022/06/24 16:06:58;;;;;;;14.68;8.25;;;22.60;72.80;;;;;;4756619;30;20161;-77
2022/06/24 16:09:25;;;;;;;15.25;9.23;;;22.60;72.80;;;;;;4771981;30;20058;-80
2022/06/24 16:14:36;;;;;;;18.25;8.32;;;22.60;73.10;;;;;;4761038;30;20067;-77
2022/06/24 16:17:05;;;;;;;17.80;7.47;;;22.70;73.50;;;;;;4776450;30;20092;-76
2022/06/24 16:19:31;;;;;;;13.05;8.88;;;22.70;73.70;;;;;;4781392;30;20055;-78
2022/06/24 16:21:59;;;;;;;12.77;8.43;;;22.70;73.70;;;;;;4777318;30;20060;-80
2022/06/24 16:24:24;;;;;;;14.50;8.30;;;22.70;73.90;;;;;;4771550;30;20464;-78
2022/06/24 16:29:34;;;;;;;12.73;8.15;;;22.70;73.80;;;;;;4755976;30;20143;-79
2022/06/24 16:32:00;;;;;;;14.30;7.10;;;22.70;73.50;;;;;;4771378;30;20139;-81
2022/06/24 16:34:26;;;;;;;13.60;7.93;;;22.70;73.00;;;;;;4771337;30;20484;-79
2022/06/24 16:36:52;;;;;;;12.38;6.78;;;22.70;73.00;;;;;;4771943;30;20146;-81
2022/06/24 16:39:18;;;;;;;10.02;5.63;;;22.70;72.80;;;;;;4758435;30;20071;-80
2022/06/24 16:41:44;;;;;;;11.20;6.13;;;22.70;72.80;;;;;;4759325;30;20055;-79
2022/06/24 16:44:10;;;;;;;13.75;5.97;;;22.70;72.60;;;;;;4759541;30;20136;-80
2022/06/24 16:46:36;;;;;;;8.68;4.97;;;22.70;72.50;;;;;;4759867;30;20059;-79
2022/06/24 16:49:01;;;;;;;11.50;5.28;;;22.70;72.80;;;;;;4759754;30;20055;-78
2022/06/24 16:51:27;;;;;;;9.55;4.72;;;22.70;73.00;;;;;;4759335;30;20060;-81
2022/06/24 16:53:53;;;;;;;8.68;4.88;;;22.70;73.20;;;;;;4759089;30;20121;-78
2022/06/24 16:56:19;;;;;;;14.55;5.03;;;22.70;73.20;;;;;;4774915;30;20124;-79
2022/06/24 16:58:46;;;;;;;10.75;4.47;;;22.70;73.10;;;;;;4774978;30;20094;-80
2022/06/24 17:01:12;;;;;;;10.55;4.45;;;22.70;72.90;;;;;;4774903;30;20051;-79
2022/06/24 17:03:38;;;;;;;6.88;4.65;;;22.70;72.50;;;;;;4757488;30;20059;-81
2022/06/24 17:06:06;;;;;;;6.00;3.67;;;22.70;72.00;;;;;;4757323;30;20055;-79
2022/06/24 17:08:33;;;;;;;8.98;4.03;;;22.70;71.60;;;;;;4741619;30;20132;-79
2022/06/24 17:11:01;;;;;;;10.10;3.88;;;22.60;71.60;;;;;;4756962;30;20056;-78
2022/06/24 17:13:27;;;;;;;9.30;3.38;;;22.60;71.70;;;;;;4757841;30;20072;-77
2022/06/24 17:15:54;;;;;;;6.75;3.20;;;22.70;72.20;;;;;;4758789;30;20043;-77
2022/06/24 17:18:21;;;;;;;8.07;3.13;;;22.70;72.30;;;;;;4775051;30;20059;-78
2022/06/24 17:20:48;;;;;;;13.00;4.07;;;22.70;72.50;;;;;;4774827;30;20124;-78
2022/06/24 17:23:14;;;;;;;6.55;3.13;;;22.70;72.70;;;;;;4758827;30;20051;-85
2022/06/24 17:25:40;;;;;;;9.93;3.88;;;22.80;72.70;;;;;;4758929;30;20135;-78
2022/06/24 17:28:06;;;;;;;18.92;5.55;;;22.70;72.80;;;;;;4775311;30;20048;-78
2022/06/24 17:30:32;;;;;;;8.73;4.07;;;22.70;73.20;;;;;;4759478;30;20117;-78
2022/06/24 17:32:58;;;;;;;11.43;3.85;;;22.80;73.40;;;;;;4774104;30;20392;-78
2022/06/24 17:35:25;;;;;;;8.02;3.22;;;22.70;73.50;;;;;;4774366;30;20094;-78
2022/06/24 17:37:51;;;;;;;6.28;2.70;;;22.70;73.60;;;;;;4774337;30;20109;-77
2022/06/24 17:40:17;;;;;;;11.80;4.60;;;22.70;73.50;;;;;;4774422;30;20064;-78
2022/06/24 17:42:43;;;;;;;7.28;3.35;;;22.70;73.70;;;;;;4773935;30;20468;-78
2022/06/24 17:45:08;;;;;;;6.00;2.78;;;22.70;73.70;;;;;;4774289;30;20059;-78
2022/06/24 17:47:35;;;;;;;10.05;4.15;;;22.70;73.70;;;;;;4774262;30;20051;-78
2022/06/24 17:50:04;;;;;;;6.35;2.97;;;22.70;74.30;;;;;;4773047;30;20134;-77
2022/06/24 17:52:31;;;;;;;6.38;2.30;;;22.70;73.70;;;;;;4773785;30;20056;-77
2022/06/24 17:54:57;;;;;;;5.53;2.95;;;22.70;73.60;;;;;;4774025;30;20051;-78
2022/06/24 17:57:23;;;;;;;5.25;2.75;;;22.70;74.20;;;;;;4758469;30;20056;-78
2022/06/24 17:59:49;;;;;;;4.70;2.40;;;22.70;73.50;;;;;;4774074;30;20148;-78
2022/06/24 18:02:14;;;;;;;4.70;2.60;;;22.70;73.40;;;;;;4773803;30;20456;-78
2022/06/24 18:04:40;;;;;;;6.22;2.60;;;22.70;73.40;;;;;;4773854;30;20322;-78
2022/06/24 18:07:06;;;;;;;5.03;1.80;;;22.70;73.30;;;;;;4758883;30;20052;-78
2022/06/24 18:09:32;;;;;;;7.45;2.10;;;22.70;73.20;;;;;;4774038;30;20531;-79
2022/06/24 18:12:01;;;;;;;7.55;2.45;;;22.70;73.10;;;;;;4757829;30;20127;-78
2022/06/24 18:14:28;;;;;;;5.97;2.08;;;22.70;73.00;;;;;;4773924;30;20056;-78
2022/06/24 18:16:53;;;;;;;4.38;2.60;;;22.60;72.90;;;;;;4773848;30;20095;-78
2022/06/24 18:19:19;;;;;;;2.88;2.33;;;22.70;72.80;;;;;;4774159;30;20079;-78
2022/06/24 18:21:45;;;;;;;3.72;2.15;;;22.70;72.70;;;;;;4773237;30;20040;-78
2022/06/24 18:24:10;;;;;;;2.83;1.95;;;22.70;72.60;;;;;;4773824;30;20058;-78
2022/06/24 18:26:36;;;;;;;2.65;2.05;;;22.70;72.50;;;;;;4773672;30;20525;-78
2022/06/24 18:29:02;;;;;;;3.78;1.90;;;22.70;72.30;;;;;;4773826;30;20059;-78
2022/06/24 18:31:28;;;;;;;3.00;2.10;;;22.70;72.30;;;;;;4773126;30;20415;-77
2022/06/24 18:33:54;;;;;;;4.82;2.20;;;22.70;72.20;;;;;;4773795;30;20055;-77
2022/06/24 18:36:21;;;;;;;4.05;2.22;;;22.70;72.00;;;;;;4773620;30;20134;-78
2022/06/24 18:38:47;;;;;;;3.03;2.10;;;22.70;71.80;;;;;;4773509;30;20058;-77
2022/06/24 18:41:13;;;;;;;3.22;1.83;;;22.70;71.80;;;;;;4773272;30;20449;-77
2022/06/24 18:43:40;;;;;;;3.65;2.20;;;22.60;71.80;;;;;;4773660;30;20070;-77
2022/06/24 18:46:06;;;;;;;3.25;2.17;;;22.70;71.90;;;;;;4773957;30;20348;-78
2022/06/24 18:48:33;;;;;;;3.60;1.95;;;22.70;71.90;;;;;;4773007;30;20051;-77
2022/06/24 18:50:59;;;;;;;3.10;2.05;;;22.70;71.90;;;;;;4773040;30;20059;-77
2022/06/24 18:53:24;;;;;;;3.15;1.98;;;22.70;71.80;;;;;;4772959;30;20059;-77
2022/06/24 18:55:50;;;;;;;3.63;1.90;;;22.70;71.70;;;;;;4773732;30;20047;-77
2022/06/24 18:58:16;;;;;;;3.22;2.17;;;22.70;71.70;;;;;;4773325;30;20052;-78
2022/06/24 19:00:41;;;;;;;3.65;1.92;;;22.70;71.70;;;;;;4772556;30;20056;-78
2022/06/24 19:03:07;;;;;;;3.40;1.88;;;22.70;71.60;;;;;;4772412;30;20056;-77
2022/06/24 19:05:40;;;;;;;3.67;2.00;;;22.70;71.60;;;;;;4772612;30;20463;-77
2022/06/24 19:08:07;;;;;;;2.70;1.55;;;22.70;71.60;;;;;;4772721;30;20048;-77
2022/06/24 19:10:33;;;;;;;3.35;2.13;;;22.70;71.60;;;;;;4773013;30;20048;-77
2022/06/24 19:12:59;;;;;;;2.53;2.10;;;22.70;71.60;;;;;;4756601;30;20091;-77
2022/06/24 19:15:26;;;;;;;2.92;1.75;;;22.70;71.70;;;;;;4772801;30;20509;-77
2022/06/24 19:17:51;;;;;;;2.45;1.80;;;22.70;71.70;;;;;;4772695;30;20063;-76
2022/06/24 19:20:17;;;;;;;2.78;1.67;;;22.70;71.70;;;;;;4773058;30;20052;-76
2022/06/24 19:22:43;;;;;;;3.08;1.90;;;22.70;71.70;;;;;;4772459;30;20052;-77
2022/06/24 19:25:08;;;;;;;3.10;1.80;;;22.60;71.60;;;;;;4772615;30;20095;-77
2022/06/24 19:27:34;;;;;;;2.65;2.05;;;22.70;71.70;;;;;;4772951;30;20060;-77
2022/06/24 19:30:00;;;;;;;3.17;1.67;;;22.70;71.70;;;;;;4772785;30;20051;-77
2022/06/24 19:32:27;;;;;;;2.58;1.75;;;22.70;71.70;;;;;;4771762;30;20064;-77
2022/06/24 19:34:53;;;;;;;2.17;1.60;;;22.70;71.70;;;;;;4756699;30;20044;-79
2022/06/24 19:37:19;;;;;;;3.60;2.10;;;22.60;71.60;;;;;;4742068;30;20051;-82
2022/06/24 19:39:45;;;;;;;3.70;2.60;;;22.60;71.00;;;;;;4772569;30;20230;-84
2022/06/24 19:42:11;;;;;;;4.65;2.85;;;22.60;70.40;;;;;;4741844;30;20066;-83
2022/06/24 19:44:38;;;;;;;4.07;2.75;;;22.50;70.50;;;;;;4772230;30;20055;-81
2022/06/24 19:47:05;;;;;;;6.38;3.58;;;22.40;70.50;;;;;;4770711;30;20059;-80
2022/06/24 19:49:32;;;;;;;6.68;3.38;;;22.40;70.40;;;;;;4772248;30;20051;-81
2022/06/24 19:51:58;;;;;;;10.75;3.05;;;22.40;70.40;;;;;;4771990;30;20373;-83
2022/06/24 19:54:24;;;;;;;10.43;3.13;;;22.40;70.40;;;;;;4756521;30;20055;-78
2022/06/24 19:56:52;;;;;;;6.40;3.40;;;22.30;70.50;;;;;;4772198;30;20368;-79
2022/06/24 19:59:19;;;;;;;5.82;2.85;;;22.30;70.50;;;;;;4772121;30;20064;-78
2022/06/24 20:07:14;;;;;;;5.75;3.50;;;22.20;70.40;;;;;;4772116;30;20448;-77
2022/06/24 20:09:40;;;;;;;4.40;3.20;;;22.20;70.20;;;;;;4772637;30;20459;-78
2022/06/24 20:12:06;;;;;;;7.22;3.72;;;22.20;70.10;;;;;;4756048;30;20055;-77
2022/06/24 20:14:34;;;;;;;4.93;3.97;;;22.10;70.00;;;;;;4771509;30;20138;-78
2022/06/24 20:17:05;;;;;;;5.97;3.75;;;22.10;69.70;;;;;;4771918;30;20066;-78
2022/06/24 20:19:31;;;;;;;6.65;3.88;;;22.10;69.40;;;;;;4772055;30;20078;-78
2022/06/24 20:21:59;;;;;;;5.57;4.00;;;22.20;69.40;;;;;;4756118;30;20067;-77
2022/06/24 20:24:36;;;;;;;6.72;3.67;;;22.20;69.50;;;;;;4771835;30;20056;-78
2022/06/24 20:27:03;;;;;;;5.68;3.97;;;22.10;69.60;;;;;;4756475;30;20055;-77
2022/06/24 20:29:29;;;;;;;5.95;4.07;;;22.10;69.70;;;;;;4771809;30;20059;-78